Time;durP1;ratioP1;P1;durP2;ratioP2;P2;SDS_P1;SDS_P2;PMS_P1;PMS_P2;Temp;Humidity;BMP_temperature;BMP_pressure;BME280_temperature;BME280_humidity;BME280_pressure;Samples;Min_cycle;Max_cycle;Signal;HPM_P1;HPM_P2
2021/12/22 00:01:39;;;;;;;20.55;12.95;;;;;;;;;;5107733;28;20101;-74
2021/12/22 00:04:05;;;;;;;21.83;13.05;;;;;;;;;;5100806;28;20072;-75
2021/12/22 00:06:34;;;;;;;19.23;12.63;;;;;;;;;;5097809;28;20486;-74
2021/12/22 00:09:00;;;;;;;29.00;13.88;;;;;;;;;;5109150;28;20396;-74
2021/12/22 00:11:26;;;;;;;33.85;14.23;;;;;;;;;;5105446;28;20039;-75
2021/12/22 00:13:53;;;;;;;23.30;13.18;;;;;;;;;;5101547;28;20421;-74
2021/12/22 00:16:19;;;;;;;27.98;14.60;;;;;;;;;;5102636;28;20028;-75
2021/12/22 00:18:45;;;;;;;29.80;13.27;;;;;;;;;;5099021;28;20538;-75
2021/12/22 00:21:11;;;;;;;27.23;13.57;;;;;;;;;;5104014;28;20096;-75
2021/12/22 00:23:38;;;;;;;27.33;13.63;;;;;;;;;;5102848;28;20035;-75
2021/12/22 00:26:05;;;;;;;33.97;13.00;;;;;;;;;;5104819;28;20043;-74
2021/12/22 00:28:34;;;;;;;32.47;14.73;;;;;;;;;;5104866;28;20047;-75
2021/12/22 00:31:08;;;;;;;21.67;12.10;;;;;;;;;;5102947;28;20027;-74
2021/12/22 00:33:38;;;;;;;31.17;12.00;;;;;;;;;;5101978;28;20023;-75
2021/12/22 00:36:04;;;;;;;25.35;12.63;;;;;;;;;;5106868;28;20055;-74
2021/12/22 00:38:30;;;;;;;23.50;12.30;;;;;;;;;;5097527;28;20145;-75
2021/12/22 00:40:56;;;;;;;24.98;11.63;;;;;;;;;;5104588;28;20032;-74
2021/12/22 00:43:22;;;;;;;22.80;12.05;;;;;;;;;;5107161;28;20039;-74
2021/12/22 00:45:55;;;;;;;23.08;13.00;;;;;;;;;;5102231;28;20686;-75
2021/12/22 00:48:21;;;;;;;20.48;11.43;;;;;;;;;;5108656;28;20090;-75
2021/12/22 00:50:47;;;;;;;23.73;11.68;;;;;;;;;;5104537;28;20030;-74
2021/12/22 00:53:14;;;;;;;22.30;12.10;;;;;;;;;;5105413;28;20027;-75
2021/12/22 00:55:40;;;;;;;20.38;11.77;;;;;;;;;;5096355;28;20101;-75
2021/12/22 00:58:06;;;;;;;22.90;12.63;;;;;;;;;;5103429;28;20031;-76
2021/12/22 01:00:32;;;;;;;20.63;11.45;;;;;;;;;;5106714;28;20036;-75
2021/12/22 01:02:58;;;;;;;21.65;11.55;;;;;;;;;;5105060;28;20036;-74
2021/12/22 01:05:24;;;;;;;24.17;12.30;;;;;;;;;;5109628;28;20073;-76
2021/12/22 01:07:50;;;;;;;25.35;10.98;;;;;;;;;;5103276;28;20468;-76
2021/12/22 01:10:35;;;;;;;17.85;11.57;;;;;;;;;;5111924;28;20024;-76
2021/12/22 01:13:03;;;;;;;23.05;11.57;;;;;;;;;;5100396;28;20040;-76
2021/12/22 01:15:30;;;;;;;28.88;10.90;;;;;;;;;;5098558;28;20030;-75
2021/12/22 01:18:04;;;;;;;21.60;10.40;;;;;;;;;;5104966;28;20036;-76
2021/12/22 01:20:48;;;;;;;16.17;10.73;;;;;;;;;;5108314;28;20030;-75
2021/12/22 01:23:14;;;;;;;22.33;12.45;;;;;;;;;;5109124;28;20039;-75
2021/12/22 01:25:43;;;;;;;19.02;11.00;;;;;;;;;;5101509;28;20035;-75
2021/12/22 01:28:10;;;;;;;23.92;12.18;;;;;;;;;;5097263;28;20032;-74
2021/12/22 01:30:42;;;;;;;22.88;11.98;;;;;;;;;;5100635;28;20174;-74
2021/12/22 01:33:08;;;;;;;20.77;10.45;;;;;;;;;;5099318;28;20027;-74
2021/12/22 01:35:35;;;;;;;19.65;10.93;;;;;;;;;;5105469;28;20393;-74
2021/12/22 01:38:01;;;;;;;21.38;11.57;;;;;;;;;;5102433;28;20593;-74
2021/12/22 01:40:28;;;;;;;18.80;10.90;;;;;;;;;;5100917;27;20031;-75
2021/12/22 01:42:55;;;;;;;20.38;10.52;;;;;;;;;;5106637;28;20490;-75
2021/12/22 01:45:46;;;;;;;20.10;10.73;;;;;;;;;;5104396;28;20028;-76
2021/12/22 01:51:04;;;;;;;16.33;10.10;;;;;;;;;;5102469;28;20602;-79
2021/12/22 01:53:40;;;;;;;65.65;25.48;;;;;;;;;;5102413;28;20035;-79
2021/12/22 01:56:26;;;;;;;81.43;42.00;;;;;;;;;;5107264;28;20035;-79
2021/12/22 01:58:53;;;;;;;20.58;11.43;;;;;;;;;;5104160;28;20043;-78
2021/12/22 02:01:19;;;;;;;19.85;10.60;;;;;;;;;;5107482;28;20178;-76
2021/12/22 02:03:47;;;;;;;19.80;10.85;;;;;;;;;;5102115;28;20061;-75
2021/12/22 02:06:13;;;;;;;16.75;9.75;;;;;;;;;;5099918;28;20114;-76
2021/12/22 02:08:40;;;;;;;20.85;9.65;;;;;;;;;;5102725;28;20044;-76
2021/12/22 02:11:06;;;;;;;19.65;10.77;;;;;;;;;;5106504;28;20032;-76
2021/12/22 02:13:37;;;;;;;14.40;9.13;;;;;;;;;;5106466;28;20027;-76
2021/12/22 02:16:09;;;;;;;15.63;9.32;;;;;;;;;;5109942;28;20032;-75
2021/12/22 02:18:37;;;;;;;19.93;10.13;;;;;;;;;;5101151;28;20081;-75
2021/12/22 02:21:04;;;;;;;16.05;9.45;;;;;;;;;;5104933;28;20027;-75
2021/12/22 02:23:30;;;;;;;18.20;9.95;;;;;;;;;;5106647;28;20104;-74
2021/12/22 02:26:02;;;;;;;16.42;9.93;;;;;;;;;;5105686;28;20546;-76
2021/12/22 02:28:32;;;;;;;20.38;10.38;;;;;;;;;;5095075;28;20038;-75
2021/12/22 02:30:58;;;;;;;19.75;9.98;;;;;;;;;;5101562;28;20035;-75
2021/12/22 02:33:39;;;;;;;21.35;10.55;;;;;;;;;;5100475;28;20067;-76
2021/12/22 02:36:21;;;;;;;18.42;9.43;;;;;;;;;;5106213;28;20035;-75
2021/12/22 02:38:48;;;;;;;14.07;9.13;;;;;;;;;;5100838;28;20156;-75
2021/12/22 02:41:15;;;;;;;21.90;10.85;;;;;;;;;;5101378;28;20143;-75
2021/12/22 02:43:48;;;;;;;18.65;9.98;;;;;;;;;;5107422;28;20035;-74
2021/12/22 02:46:16;;;;;;;17.25;9.77;;;;;;;;;;5099166;28;20079;-75
2021/12/22 02:48:42;;;;;;;20.38;9.57;;;;;;;;;;5104010;28;20032;-76
2021/12/22 02:51:09;;;;;;;19.90;10.65;;;;;;;;;;5097095;28;20031;-75
2021/12/22 02:54:15;;;;;;;23.05;11.00;;;;;;;;;;5104322;28;20102;-75
2021/12/22 02:57:21;;;;;;;17.95;10.85;;;;;;;;;;5095969;28;20024;-75
2021/12/22 02:59:42;;;;;;;21.50;10.88;;;;;;;;;;5091018;28;20028;-75
2021/12/22 03:02:19;;;;;;;16.98;9.30;;;;;;;;;;5107393;28;20040;-75
2021/12/22 03:04:57;;;;;;;19.67;8.85;;;;;;;;;;5093014;28;20043;-75
2021/12/22 03:07:27;;;;;;;19.55;9.73;;;;;;;;;;5100054;28;20028;-73
2021/12/22 03:10:00;;;;;;;20.67;9.85;;;;;;;;;;5093897;28;20035;-75
2021/12/22 03:12:26;;;;;;;26.02;9.07;;;;;;;;;;5103647;28;20024;-75
2021/12/22 03:14:52;;;;;;;20.45;10.10;;;;;;;;;;5104262;28;20047;-74
2021/12/22 03:17:18;;;;;;;23.95;9.80;;;;;;;;;;5102915;28;20031;-75
2021/12/22 03:19:44;;;;;;;18.83;9.90;;;;;;;;;;5098322;28;20035;-75
2021/12/22 03:22:12;;;;;;;20.55;9.13;;;;;;;;;;5097573;28;20053;-75
2021/12/22 03:24:39;;;;;;;18.23;9.00;;;;;;;;;;5101278;28;20501;-74
2021/12/22 03:27:07;;;;;;;17.42;9.65;;;;;;;;;;5098319;28;20027;-75
2021/12/22 03:29:34;;;;;;;20.52;9.55;;;;;;;;;;5100932;28;20059;-74
2021/12/22 03:32:00;;;;;;;18.95;9.70;;;;;;;;;;5103490;28;20366;-74
2021/12/22 03:34:26;;;;;;;22.05;10.55;;;;;;;;;;5100272;28;20040;-75
2021/12/22 03:36:53;;;;;;;20.48;10.43;;;;;;;;;;5094572;28;20461;-75
2021/12/22 03:39:19;;;;;;;23.10;10.05;;;;;;;;;;5097969;28;20020;-75
2021/12/22 03:41:46;;;;;;;18.92;10.55;;;;;;;;;;5104576;28;20403;-75
2021/12/22 03:44:13;;;;;;;18.30;10.02;;;;;;;;;;5099923;28;20481;-75
2021/12/22 03:46:39;;;;;;;19.85;9.98;;;;;;;;;;5096796;28;20024;-75
2021/12/22 03:49:06;;;;;;;25.17;11.65;;;;;;;;;;5106870;28;20801;-75
2021/12/22 03:51:32;;;;;;;20.65;11.57;;;;;;;;;;5104709;28;20040;-75
2021/12/22 03:53:59;;;;;;;26.38;11.93;;;;;;;;;;5100157;28;20024;-74
2021/12/22 03:56:25;;;;;;;25.50;11.35;;;;;;;;;;5095349;28;20470;-75
2021/12/22 03:58:51;;;;;;;21.98;10.95;;;;;;;;;;5104479;28;20035;-75
2021/12/22 04:01:17;;;;;;;29.73;11.50;;;;;;;;;;5101396;28;20114;-75
2021/12/22 04:03:47;;;;;;;21.02;11.93;;;;;;;;;;5106037;28;20023;-75
2021/12/22 04:06:13;;;;;;;21.45;11.98;;;;;;;;;;5098611;28;20505;-75
2021/12/22 04:08:39;;;;;;;22.38;12.52;;;;;;;;;;5097746;28;20027;-75
2021/12/22 04:11:05;;;;;;;26.48;12.32;;;;;;;;;;5102047;28;20104;-76
2021/12/22 04:13:31;;;;;;;24.77;11.80;;;;;;;;;;5098628;28;20039;-75
2021/12/22 04:15:57;;;;;;;22.85;11.25;;;;;;;;;;5097120;28;20040;-75
2021/12/22 04:18:23;;;;;;;21.27;11.85;;;;;;;;;;5102170;28;20036;-75
2021/12/22 04:20:50;;;;;;;25.45;12.25;;;;;;;;;;5097176;28;20028;-75
2021/12/22 04:23:16;;;;;;;20.75;11.80;;;;;;;;;;5103987;28;20031;-75
2021/12/22 04:25:42;;;;;;;26.48;13.70;;;;;;;;;;5104668;28;20036;-74
2021/12/22 04:28:10;;;;;;;18.30;10.93;;;;;;;;;;5106653;28;20065;-74
2021/12/22 04:30:38;;;;;;;28.50;12.13;;;;;;;;;;5109721;28;20476;-75
2021/12/22 04:33:04;;;;;;;21.02;11.63;;;;;;;;;;5104172;28;20123;-74
2021/12/22 04:35:30;;;;;;;23.80;12.38;;;;;;;;;;5095642;28;20064;-74
2021/12/22 04:37:56;;;;;;;29.73;14.57;;;;;;;;;;5104374;28;20118;-74
2021/12/22 04:40:23;;;;;;;28.38;11.73;;;;;;;;;;5106517;28;20032;-74
2021/12/22 04:42:49;;;;;;;25.33;13.45;;;;;;;;;;5106083;28;20035;-74
2021/12/22 04:45:15;;;;;;;20.95;12.55;;;;;;;;;;5095057;28;20088;-74
2021/12/22 04:47:42;;;;;;;20.25;11.98;;;;;;;;;;5104478;28;20130;-74
2021/12/22 04:50:13;;;;;;;29.58;12.57;;;;;;;;;;5102396;28;20504;-74
2021/12/22 04:52:50;;;;;;;23.88;11.45;;;;;;;;;;5110008;28;20493;-74
2021/12/22 04:55:16;;;;;;;28.25;13.77;;;;;;;;;;5107573;28;20056;-75
2021/12/22 04:57:42;;;;;;;26.60;13.20;;;;;;;;;;5110055;28;20058;-74
2021/12/22 05:00:10;;;;;;;22.65;12.50;;;;;;;;;;5107267;28;20032;-74
2021/12/22 05:02:36;;;;;;;23.90;12.00;;;;;;;;;;5098437;28;20023;-74
2021/12/22 05:05:02;;;;;;;24.38;12.02;;;;;;;;;;5106000;28;20028;-74
2021/12/22 05:07:28;;;;;;;19.77;11.55;;;;;;;;;;5111126;28;20039;-74
2021/12/22 05:09:55;;;;;;;24.67;12.63;;;;;;;;;;5105583;28;20584;-74
2021/12/22 05:12:21;;;;;;;29.20;12.35;;;;;;;;;;5111342;28;20023;-74
2021/12/22 05:14:50;;;;;;;23.77;11.43;;;;;;;;;;5103575;28;20067;-74
2021/12/22 05:17:24;;;;;;;22.83;11.95;;;;;;;;;;5096398;28;20554;-75
2021/12/22 05:19:50;;;;;;;23.75;12.15;;;;;;;;;;5108398;28;20035;-73
2021/12/22 05:22:16;;;;;;;29.67;13.63;;;;;;;;;;5098338;28;20028;-75
2021/12/22 05:24:42;;;;;;;29.20;13.52;;;;;;;;;;5105881;28;20051;-75
2021/12/22 05:27:11;;;;;;;23.80;11.98;;;;;;;;;;5105649;28;20032;-75
2021/12/22 05:29:37;;;;;;;21.52;11.60;;;;;;;;;;5094863;28;20103;-75
2021/12/22 05:32:04;;;;;;;26.67;13.18;;;;;;;;;;5099933;28;20058;-76
2021/12/22 05:34:30;;;;;;;22.90;12.18;;;;;;;;;;5099764;28;20031;-76
2021/12/22 05:36:56;;;;;;;21.30;11.63;;;;;;;;;;5104319;28;20047;-75
2021/12/22 05:39:22;;;;;;;26.27;11.82;;;;;;;;;;5108449;28;20477;-76
2021/12/22 05:41:48;;;;;;;25.55;12.27;;;;;;;;;;5101158;28;20497;-76
2021/12/22 05:44:15;;;;;;;23.73;13.02;;;;;;;;;;5105751;28;20381;-75
2021/12/22 05:46:41;;;;;;;23.98;12.82;;;;;;;;;;5105478;28;20393;-76
2021/12/22 05:49:07;;;;;;;22.23;11.38;;;;;;;;;;5105384;28;20057;-76
2021/12/22 05:51:34;;;;;;;25.30;13.90;;;;;;;;;;5098423;28;20028;-75
2021/12/22 05:54:00;;;;;;;25.40;12.85;;;;;;;;;;5105624;28;20027;-75
2021/12/22 05:56:29;;;;;;;25.05;12.65;;;;;;;;;;5103501;28;20027;-76
2021/12/22 05:58:56;;;;;;;24.70;12.98;;;;;;;;;;5102538;28;20027;-76
2021/12/22 06:01:22;;;;;;;25.88;12.43;;;;;;;;;;5104983;28;20032;-75
2021/12/22 06:03:48;;;;;;;24.33;12.68;;;;;;;;;;5102782;28;20040;-75
2021/12/22 06:06:14;;;;;;;23.67;12.60;;;;;;;;;;5107260;28;20040;-76
2021/12/22 06:08:40;;;;;;;29.88;12.32;;;;;;;;;;5104773;28;20050;-75
2021/12/22 06:11:06;;;;;;;22.15;13.30;;;;;;;;;;5110808;28;20036;-76
2021/12/22 06:13:32;;;;;;;23.40;12.93;;;;;;;;;;5104442;28;20064;-75
2021/12/22 06:15:58;;;;;;;30.35;12.55;;;;;;;;;;5101672;28;20031;-76
2021/12/22 06:18:24;;;;;;;25.35;12.65;;;;;;;;;;5102083;28;20047;-76
2021/12/22 06:20:50;;;;;;;21.40;11.68;;;;;;;;;;5106482;28;20032;-76
2021/12/22 06:23:16;;;;;;;22.52;12.00;;;;;;;;;;5106087;28;20035;-75
2021/12/22 06:25:42;;;;;;;22.92;12.70;;;;;;;;;;5110259;28;20220;-76
2021/12/22 06:28:09;;;;;;;23.13;11.48;;;;;;;;;;5100409;28;20028;-75
2021/12/22 06:30:35;;;;;;;36.08;13.18;;;;;;;;;;5108928;28;20032;-76
2021/12/22 06:33:01;;;;;;;24.80;11.35;;;;;;;;;;5097934;28;20031;-75
2021/12/22 06:35:27;;;;;;;21.25;11.65;;;;;;;;;;5105548;28;20447;-75
2021/12/22 06:37:53;;;;;;;30.15;12.02;;;;;;;;;;5109292;28;20038;-75
2021/12/22 06:40:20;;;;;;;27.55;13.05;;;;;;;;;;5100722;28;20036;-75
2021/12/22 06:42:46;;;;;;;21.25;11.30;;;;;;;;;;5104947;28;20027;-75
2021/12/22 06:45:13;;;;;;;30.50;11.05;;;;;;;;;;5101008;28;20032;-75
2021/12/22 06:47:39;;;;;;;23.63;11.45;;;;;;;;;;5102027;28;20362;-75
2021/12/22 06:50:06;;;;;;;24.25;12.05;;;;;;;;;;5100469;28;20035;-75
2021/12/22 06:52:33;;;;;;;29.17;11.75;;;;;;;;;;5102285;28;20028;-75
2021/12/22 06:54:59;;;;;;;22.15;13.02;;;;;;;;;;5101762;28;20058;-79
2021/12/22 06:57:25;;;;;;;22.38;12.43;;;;;;;;;;5108840;28;20473;-78
2021/12/22 06:59:51;;;;;;;25.10;13.18;;;;;;;;;;5099709;28;20545;-78
2021/12/22 07:02:17;;;;;;;26.83;12.70;;;;;;;;;;5097507;28;20066;-79
2021/12/22 07:04:43;;;;;;;26.75;11.57;;;;;;;;;;5100666;28;20047;-79
2021/12/22 07:07:09;;;;;;;30.75;13.73;;;;;;;;;;5101180;28;20035;-79
2021/12/22 07:09:36;;;;;;;29.55;13.38;;;;;;;;;;5099581;28;20568;-80
2021/12/22 07:12:02;;;;;;;27.98;13.95;;;;;;;;;;5100190;28;20029;-80
2021/12/22 07:14:28;;;;;;;35.80;17.73;;;;;;;;;;5108130;28;20036;-83
2021/12/22 07:16:55;;;;;;;23.88;12.40;;;;;;;;;;5105656;28;20032;-79
2021/12/22 07:19:21;;;;;;;24.60;12.60;;;;;;;;;;5100388;28;20036;-78
2021/12/22 07:21:49;;;;;;;29.92;14.05;;;;;;;;;;5098228;28;20545;-78
2021/12/22 07:24:15;;;;;;;29.98;12.07;;;;;;;;;;5097678;28;20035;-78
2021/12/22 07:26:41;;;;;;;25.75;12.90;;;;;;;;;;5100841;28;20035;-79
2021/12/22 07:29:07;;;;;;;24.67;12.13;;;;;;;;;;5099512;28;20020;-78
2021/12/22 07:31:34;;;;;;;24.75;12.27;;;;;;;;;;5099526;28;20133;-78
2021/12/22 07:34:00;;;;;;;31.75;12.90;;;;;;;;;;5106430;28;20034;-79
2021/12/22 07:36:26;;;;;;;26.13;11.68;;;;;;;;;;5098060;28;20111;-78
2021/12/22 07:38:56;;;;;;;26.02;11.73;;;;;;;;;;5102761;28;20073;-78
2021/12/22 07:41:22;;;;;;;21.60;11.45;;;;;;;;;;5100424;28;20034;-78
2021/12/22 07:43:48;;;;;;;28.95;12.00;;;;;;;;;;5096922;28;20043;-77
2021/12/22 07:46:14;;;;;;;21.15;11.00;;;;;;;;;;5104603;28;20081;-78
2021/12/22 07:48:40;;;;;;;24.92;11.70;;;;;;;;;;5108142;28;20036;-79
2021/12/22 07:51:06;;;;;;;30.60;15.60;;;;;;;;;;5097060;28;20100;-77
2021/12/22 07:53:33;;;;;;;32.55;14.77;;;;;;;;;;5097583;28;20065;-78
2021/12/22 07:55:59;;;;;;;26.83;13.57;;;;;;;;;;5111228;28;20036;-78
2021/12/22 07:58:26;;;;;;;30.85;12.00;;;;;;;;;;5100821;28;20104;-79
2021/12/22 08:00:52;;;;;;;23.40;10.85;;;;;;;;;;5108951;28;20040;-78
2021/12/22 08:03:18;;;;;;;22.70;10.88;;;;;;;;;;5104990;28;20059;-78
2021/12/22 08:05:45;;;;;;;23.65;10.95;;;;;;;;;;5108341;28;20027;-79
2021/12/22 08:08:11;;;;;;;23.30;11.45;;;;;;;;;;5110856;28;20034;-78
2021/12/22 08:10:37;;;;;;;25.35;11.50;;;;;;;;;;5099313;28;20034;-79
2021/12/22 08:13:03;;;;;;;24.60;10.68;;;;;;;;;;5104961;28;20036;-78
2021/12/22 08:15:29;;;;;;;26.90;12.20;;;;;;;;;;5115954;27;20032;-78
2021/12/22 08:17:56;;;;;;;23.52;10.98;;;;;;;;;;5110554;27;20027;-78
2021/12/22 08:20:23;;;;;;;24.15;11.38;;;;;;;;;;5104350;28;20474;-78
2021/12/22 08:22:49;;;;;;;24.85;11.05;;;;;;;;;;5105124;27;20067;-79
2021/12/22 08:25:15;;;;;;;27.30;11.38;;;;;;;;;;5112348;28;20198;-77
2021/12/22 08:27:41;;;;;;;24.40;10.95;;;;;;;;;;5108356;28;20094;-76
2021/12/22 08:30:08;;;;;;;25.38;11.38;;;;;;;;;;5109384;28;21522;-77
2021/12/22 08:32:35;;;;;;;59.53;29.45;;;;;;;;;;5101118;28;20024;-79
2021/12/22 08:35:03;;;;;;;36.97;17.10;;;;;;;;;;5098964;28;20024;-78
2021/12/22 08:40:17;;;;;;;22.63;11.05;;;;;;;;;;5106360;28;20054;-77
2021/12/22 08:42:44;;;;;;;22.52;11.07;;;;;;;;;;5105707;28;20032;-77
2021/12/22 08:45:10;;;;;;;26.98;11.20;;;;;;;;;;5106249;28;20477;-77
2021/12/22 08:47:36;;;;;;;30.25;12.52;;;;;;;;;;5113642;28;20594;-77
2021/12/22 08:50:03;;;;;;;22.50;11.73;;;;;;;;;;5107666;28;20023;-77
2021/12/22 08:52:29;;;;;;;22.90;11.05;;;;;;;;;;5111425;28;20046;-77
2021/12/22 08:54:55;;;;;;;27.35;12.20;;;;;;;;;;5086409;28;20043;-77
2021/12/22 08:57:21;;;;;;;23.95;11.93;;;;;;;;;;5094761;28;20028;-77
2021/12/22 08:59:47;;;;;;;26.13;10.95;;;;;;;;;;5103194;28;20035;-77
2021/12/22 09:02:13;;;;;;;24.77;12.02;;;;;;;;;;5090809;28;20118;-77
2021/12/22 09:04:39;;;;;;;32.88;13.07;;;;;;;;;;5105206;28;20046;-77
2021/12/22 09:07:05;;;;;;;39.63;13.02;;;;;;;;;;5106236;28;20031;-77
2021/12/22 09:09:32;;;;;;;25.38;11.70;;;;;;;;;;5103434;28;20072;-77
2021/12/22 09:11:58;;;;;;;25.63;11.77;;;;;;;;;;5099235;28;20114;-77
2021/12/22 09:14:24;;;;;;;28.77;11.75;;;;;;;;;;5102170;28;20031;-77
2021/12/22 09:16:51;;;;;;;23.05;11.57;;;;;;;;;;5107356;28;20027;-78
2021/12/22 09:19:17;;;;;;;26.33;11.50;;;;;;;;;;5100654;28;20038;-77
2021/12/22 09:21:44;;;;;;;23.40;11.50;;;;;;;;;;5106945;28;20529;-77
2021/12/22 09:24:10;;;;;;;23.42;11.90;;;;;;;;;;5096114;28;20436;-78
2021/12/22 09:26:36;;;;;;;27.35;11.93;;;;;;;;;;5101981;28;20445;-78
2021/12/22 09:29:03;;;;;;;22.17;11.75;;;;;;;;;;5102776;28;20027;-77
2021/12/22 09:31:29;;;;;;;19.10;10.55;;;;;;;;;;5105489;28;20054;-78
2021/12/22 09:33:57;;;;;;;46.97;20.77;;;;;;;;;;5109616;28;20378;-78
2021/12/22 09:36:23;;;;;;;28.63;14.73;;;;;;;;;;5106820;28;20095;-78
2021/12/22 09:38:50;;;;;;;29.23;13.13;;;;;;;;;;5107128;28;20478;-78
2021/12/22 09:41:16;;;;;;;23.67;12.18;;;;;;;;;;5098995;28;20044;-78
2021/12/22 09:43:42;;;;;;;33.22;11.32;;;;;;;;;;5106399;28;20032;-77
2021/12/22 09:46:12;;;;;;;22.35;11.07;;;;;;;;;;5087012;28;20555;-77
2021/12/22 09:53:43;;;;;;;27.38;11.90;;;;;;;;;;5098938;28;20369;-78
2021/12/22 09:56:09;;;;;;;22.13;10.27;;;;;;;;;;5101432;28;20116;-78
2021/12/22 09:58:38;;;;;;;21.58;11.40;;;;;;;;;;5099502;28;20031;-77
2021/12/22 10:01:04;;;;;;;23.38;11.40;;;;;;;;;;5104286;28;20057;-78
2021/12/22 10:03:31;;;;;;;21.42;11.73;;;;;;;;;;5099721;28;20024;-77
2021/12/22 10:05:57;;;;;;;24.50;12.02;;;;;;;;;;5106878;28;20111;-76
2021/12/22 10:08:25;;;;;;;22.55;11.25;;;;;;;;;;5100848;28;20035;-77
2021/12/22 10:10:52;;;;;;;28.50;12.02;;;;;;;;;;5102931;28;20024;-77
2021/12/22 10:13:20;;;;;;;22.20;11.23;;;;;;;;;;5100704;28;20050;-77
2021/12/22 10:15:46;;;;;;;55.17;23.27;;;;;;;;;;5106187;27;20088;-75
2021/12/22 10:18:14;;;;;;;70.97;29.27;;;;;;;;;;5104372;28;20115;-78
2021/12/22 10:20:40;;;;;;;26.00;12.40;;;;;;;;;;5103367;28;20528;-77
2021/12/22 10:23:21;;;;;;;24.17;11.82;;;;;;;;;;5099629;28;20028;-77
2021/12/22 10:25:51;;;;;;;24.10;12.38;;;;;;;;;;5097932;28;20133;-77
2021/12/22 10:28:19;;;;;;;27.90;11.73;;;;;;;;;;5097342;28;20023;-76
2021/12/22 10:30:46;;;;;;;21.88;11.23;;;;;;;;;;5106874;28;20556;-77
2021/12/22 10:33:15;;;;;;;21.80;11.52;;;;;;;;;;5098390;28;20027;-77
2021/12/22 10:35:42;;;;;;;23.35;11.48;;;;;;;;;;5105319;28;20037;-77
2021/12/22 10:38:09;;;;;;;24.88;11.50;;;;;;;;;;5097668;28;20044;-78
2021/12/22 10:40:37;;;;;;;30.88;11.80;;;;;;;;;;5102124;28;20024;-77
2021/12/22 10:43:03;;;;;;;22.75;11.13;;;;;;;;;;5105886;28;20020;-77
2021/12/22 10:45:31;;;;;;;28.08;11.18;;;;;;;;;;5098572;28;20036;-77
2021/12/22 10:50:44;;;;;;;21.92;10.60;;;;;;;;;;5102509;28;20070;-76
2021/12/22 10:53:14;;;;;;;19.88;11.00;;;;;;;;;;5097769;28;20036;-76
2021/12/22 10:55:41;;;;;;;28.08;12.93;;;;;;;;;;5098972;28;20031;-77
2021/12/22 10:58:18;;;;;;;22.13;12.02;;;;;;;;;;5102856;28;20370;-76
2021/12/22 11:00:44;;;;;;;26.10;13.00;;;;;;;;;;5103045;28;20434;-77
2021/12/22 11:03:15;;;;;;;26.63;11.75;;;;;;;;;;5097441;28;20567;-77
2021/12/22 11:05:48;;;;;;;21.05;11.02;;;;;;;;;;5093983;28;20040;-77
2021/12/22 11:08:14;;;;;;;;;;;;;;;;;;5103156;28;20159;-76
2021/12/22 11:10:40;;;;;;;23.55;12.43;;;;;;;;;;5095651;28;19908;-76
2021/12/22 11:13:07;;;;;;;20.20;10.65;;;;;;;;;;5102586;28;20073;-76
2021/12/22 11:15:43;;;;;;;19.95;11.77;;;;;;;;;;5104361;28;20039;-76
2021/12/22 11:18:29;;;;;;;23.27;10.65;;;;;;;;;;5098257;28;20059;-76
2021/12/22 11:21:08;;;;;;;20.83;11.52;;;;;;;;;;5102321;28;20028;-76
2021/12/22 11:23:35;;;;;;;21.73;11.02;;;;;;;;;;5103940;28;20385;-76
2021/12/22 11:26:02;;;;;;;25.90;11.82;;;;;;;;;;5096241;28;20043;-77
2021/12/22 11:28:28;;;;;;;21.63;11.40;;;;;;;;;;5097815;28;20028;-76
2021/12/22 11:30:55;;;;;;;23.50;11.00;;;;;;;;;;5103797;28;20032;-76
2021/12/22 11:33:21;;;;;;;23.52;11.48;;;;;;;;;;5098023;28;20024;-77
2021/12/22 11:35:48;;;;;;;32.80;16.20;;;;;;;;;;5110549;28;20027;-76
2021/12/22 11:38:14;;;;;;;34.95;16.45;;;;;;;;;;5105341;28;20429;-76
2021/12/22 11:40:44;;;;;;;21.23;10.80;;;;;;;;;;5102026;28;20032;-77
2021/12/22 11:43:11;;;;;;;20.25;11.25;;;;;;;;;;5103082;27;20023;-75
2021/12/22 11:45:38;;;;;;;20.98;11.23;;;;;;;;;;5107164;28;20059;-75
2021/12/22 11:48:04;;;;;;;18.45;10.15;;;;;;;;;;5100810;28;20055;-76
2021/12/22 11:50:33;;;;;;;20.95;10.82;;;;;;;;;;5100827;28;20031;-76
2021/12/22 11:53:08;;;;;;;20.83;10.40;;;;;;;;;;5104181;28;20489;-75
2021/12/22 11:55:40;;;;;;;19.27;10.55;;;;;;;;;;5108819;28;20034;-75
2021/12/22 11:58:14;;;;;;;21.02;11.95;;;;;;;;;;5110999;28;20106;-75
2021/12/22 12:00:41;;;;;;;22.48;10.88;;;;;;;;;;5106610;28;20035;-76
2021/12/22 12:03:23;;;;;;;21.08;11.18;;;;;;;;;;5096152;28;20031;-75
2021/12/22 12:06:01;;;;;;;19.90;11.32;;;;;;;;;;5104611;28;20027;-76
2021/12/22 12:08:32;;;;;;;21.20;9.82;;;;;;;;;;5105324;28;20028;-76
2021/12/22 12:10:59;;;;;;;24.40;10.80;;;;;;;;;;5108847;27;20042;-76
2021/12/22 12:13:35;;;;;;;17.70;10.70;;;;;;;;;;5099322;28;20031;-75
2021/12/22 12:21:49;;;;;;;23.65;11.68;;;;;;;;;;5107940;28;20546;-78
2021/12/22 12:24:44;;;;;;;63.45;29.45;;;;;;;;;;5102304;28;20046;-78
2021/12/22 12:27:51;;;;;;;23.90;11.85;;;;;;;;;;5097714;28;20053;-75
2021/12/22 12:30:19;;;;;;;18.05;10.07;;;;;;;;;;5044954;28;20570;-77
2021/12/22 12:32:50;;;;;;;19.65;10.18;;;;;;;;;;5044625;28;20025;-77
2021/12/22 12:35:19;;;;;;;16.50;10.02;;;;;;;;;;5079257;28;20110;-76
2021/12/22 12:37:57;;;;;;;21.27;11.85;;;;;;;;;;5105067;28;20435;-76
2021/12/22 12:40:23;;;;;;;28.05;10.50;;;;;;;;;;5105859;28;20119;-75
2021/12/22 12:42:59;;;;;;;23.00;10.25;;;;;;;;;;5085806;28;20148;-75
2021/12/22 12:45:43;;;;;;;23.70;10.65;;;;;;;;;;5106416;28;20036;-75
2021/12/22 12:48:36;;;;;;;22.60;9.90;;;;;;;;;;5102317;28;20031;-75
2021/12/22 12:51:12;;;;;;;17.63;9.73;;;;;;;;;;5106608;28;20505;-76
2021/12/22 12:53:44;;;;;;;15.48;8.80;;;;;;;;;;5103938;28;20498;-75
2021/12/22 12:56:11;;;;;;;19.13;9.55;;;;;;;;;;5104927;28;20028;-75
2021/12/22 12:58:55;;;;;;;19.65;10.23;;;;;;;;;;5105227;28;20089;-76
2021/12/22 13:01:40;;;;;;;20.80;11.00;;;;;;;;;;5103421;28;20039;-75
2021/12/22 13:04:20;;;;;;;30.67;13.32;;;;;;;;;;5100318;28;20084;-76
2021/12/22 13:06:46;;;;;;;25.30;13.60;;;;;;;;;;5107910;28;20054;-75
2021/12/22 13:09:25;;;;;;;20.80;11.10;;;;;;;;;;5104503;28;20024;-75
2021/12/22 13:12:09;;;;;;;20.85;10.75;;;;;;;;;;5105833;28;21825;-76
2021/12/22 13:17:21;;;;;;;19.73;9.80;;;;;;;;;;5105401;27;20047;-75
2021/12/22 13:19:48;;;;;;;18.20;10.63;;;;;;;;;;5106457;28;20485;-75
2021/12/22 13:22:29;;;;;;;24.50;11.38;;;;;;;;;;5107744;28;20673;-76
2021/12/22 13:25:08;;;;;;;22.52;11.35;;;;;;;;;;5101045;28;20706;-78
2021/12/22 13:27:35;;;;;;;20.30;10.20;;;;;;;;;;5108789;28;20534;-78
2021/12/22 13:30:12;;;;;;;23.88;11.80;;;;;;;;;;5106479;28;20024;-78
2021/12/22 13:32:56;;;;;;;29.13;13.60;;;;;;;;;;5089145;28;20489;-81
2021/12/22 13:35:35;;;;;;;22.77;11.32;;;;;;;;;;5110697;27;20031;-79
2021/12/22 13:38:02;;;;;;;21.42;10.18;;;;;;;;;;5109344;28;20377;-79
2021/12/22 13:40:32;;;;;;;20.50;10.40;;;;;;;;;;5102146;28;20035;-77
2021/12/22 13:42:58;;;;;;;18.92;10.57;;;;;;;;;;5104135;28;20566;-79
2021/12/22 13:45:24;;;;;;;19.90;10.18;;;;;;;;;;5105582;28;20027;-76
2021/12/22 13:47:50;;;;;;;20.13;10.63;;;;;;;;;;5098966;28;20031;-79
2021/12/22 13:50:17;;;;;;;24.77;11.43;;;;;;;;;;5107254;28;20031;-78
2021/12/22 13:52:43;;;;;;;22.73;10.77;;;;;;;;;;5100367;27;20048;-77
2021/12/22 13:55:09;;;;;;;22.85;12.30;;;;;;;;;;5082359;28;20088;-77
2021/12/22 13:57:35;;;;;;;23.45;11.10;;;;;;;;;;5088376;28;20051;-78
2021/12/22 14:00:01;;;;;;;21.02;10.02;;;;;;;;;;5087196;28;20290;-79
2021/12/22 14:02:34;;;;;;;20.73;10.98;;;;;;;;;;5078385;28;20402;-79
2021/12/22 14:05:14;;;;;;;19.65;9.77;;;;;;;;;;5102878;28;20075;-79
2021/12/22 14:07:40;;;;;;;17.95;10.45;;;;;;;;;;5092951;28;20115;-79
2021/12/22 14:10:11;;;;;;;18.40;10.57;;;;;;;;;;5087766;28;20028;-78
2021/12/22 14:12:39;;;;;;;20.50;10.52;;;;;;;;;;5096152;28;20016;-78
2021/12/22 14:15:06;;;;;;;17.67;10.35;;;;;;;;;;5101424;28;20036;-79
2021/12/22 14:17:34;;;;;;;16.40;9.80;;;;;;;;;;5095523;28;20481;-78
2021/12/22 14:20:02;;;;;;;18.35;9.85;;;;;;;;;;5094938;28;20028;-78
2021/12/22 14:22:28;;;;;;;21.65;10.73;;;;;;;;;;5095230;28;20020;-78
2021/12/22 14:25:00;;;;;;;17.92;9.25;;;;;;;;;;5098934;28;20071;-78
2021/12/22 14:27:48;;;;;;;29.85;10.48;;;;;;;;;;5105822;27;20067;-78
2021/12/22 14:30:14;;;;;;;18.20;9.77;;;;;;;;;;5098421;28;20070;-79
2021/12/22 14:32:40;;;;;;;19.30;9.70;;;;;;;;;;5082290;28;20090;-78
2021/12/22 14:35:14;;;;;;;22.73;10.25;;;;;;;;;;5095757;28;20028;-77
2021/12/22 14:37:44;;;;;;;19.25;9.68;;;;;;;;;;5101306;28;20031;-77
2021/12/22 14:40:36;;;;;;;57.83;27.60;;;;;;;;;;5107068;28;20469;-77
2021/12/22 14:43:10;;;;;;;21.13;11.60;;;;;;;;;;5104143;27;20043;-76
2021/12/22 14:45:38;;;;;;;21.80;10.05;;;;;;;;;;5116987;27;20571;-74
2021/12/22 14:48:20;;;;;;;20.48;9.98;;;;;;;;;;5096331;28;20077;-74
2021/12/22 14:51:01;;;;;;;20.40;10.07;;;;;;;;;;5075848;28;20077;-74